Time;durP1;ratioP1;P1;durP2;ratioP2;P2;SDS_P1;SDS_P2;PMS_P1;PMS_P2;Temp;Humidity;BMP_temperature;BMP_pressure;BME280_temperature;BME280_humidity;BME280_pressure;Samples;Min_cycle;Max_cycle;Signal;HPM_P1;HPM_P2
2021/07/08 06:17:17;;;;;;;4.53;1.55;;;27.80;99.90;;;;;;4182250;23;20767;-79
2021/07/08 06:19:44;;;;;;;2.13;1.55;;;28.10;99.90;;;;;;4992425;28;20213;-80
2021/07/08 06:22:11;;;;;;;7.63;1.70;;;28.60;99.90;;;;;;4993205;28;20249;-79
2021/07/08 06:24:38;;;;;;;3.42;1.63;;;28.80;99.90;;;;;;4992273;28;20661;-79
2021/07/08 06:27:05;;;;;;;1.63;1.30;;;29.10;99.80;;;;;;4994156;28;20224;-79
2021/07/08 06:29:32;;;;;;;1.80;1.33;;;29.00;99.80;;;;;;4995790;28;20206;-79
2021/07/08 06:31:59;;;;;;;4.07;1.58;;;28.90;98.70;;;;;;4996372;28;20206;-79
2021/07/08 06:34:27;;;;;;;3.17;1.70;;;28.50;99.80;;;;;;4996457;28;20233;-79
2021/07/08 06:36:54;;;;;;;2.13;1.52;;;28.30;99.90;;;;;;4997161;28;20210;-79
2021/07/08 06:39:20;;;;;;;2.47;1.23;;;27.90;98.90;;;;;;4995931;28;20213;-79
2021/07/08 06:41:47;;;;;;;3.95;1.60;;;27.30;99.90;;;;;;4995849;28;20234;-79
2021/07/08 06:44:14;;;;;;;7.32;1.67;;;26.90;99.90;;;;;;4995929;28;20226;-79
2021/07/08 06:46:43;;;;;;;3.13;1.60;;;26.80;99.90;;;;;;4995844;28;20202;-79
2021/07/08 06:49:10;;;;;;;4.85;1.50;;;26.60;99.90;;;;;;4995768;28;20215;-79
2021/07/08 06:51:38;;;;;;;2.30;1.42;;;26.90;99.90;;;;;;4995803;28;20207;-78
2021/07/08 06:54:06;;;;;;;2.15;1.70;;;27.00;99.90;;;;;;4995274;28;20222;-79
2021/07/08 06:56:32;;;;;;;2.97;1.40;;;27.00;99.90;;;;;;4995983;28;20552;-79
2021/07/08 06:58:59;;;;;;;2.92;1.40;;;26.60;99.90;;;;;;4995851;28;20233;-79
2021/07/08 07:01:26;;;;;;;2.22;1.40;;;26.80;99.90;;;;;;4995602;28;20593;-79
2021/07/08 07:03:53;;;;;;;1.95;1.40;;;26.90;99.90;;;;;;4994748;28;20322;-79
2021/07/08 07:06:19;;;;;;;2.42;1.30;;;26.70;99.90;;;;;;4995881;28;20273;-81
2021/07/08 07:08:48;;;;;;;2.50;1.55;;;26.30;99.90;;;;;;4996897;28;20225;-81
2021/07/08 07:11:15;;;;;;;6.30;1.70;;;25.70;99.90;;;;;;4997024;28;20213;-80
2021/07/08 07:13:41;;;;;;;3.33;1.50;;;25.50;99.90;;;;;;4996258;28;20233;-80
2021/07/08 07:16:08;;;;;;;2.38;1.30;;;25.30;99.90;;;;;;4996193;28;20210;-80
2021/07/08 07:18:37;;;;;;;3.30;1.30;;;25.40;99.90;;;;;;4996259;28;20702;-80
2021/07/08 07:21:04;;;;;;;1.95;1.10;;;25.40;99.90;;;;;;4995475;28;20293;-80
2021/07/08 07:23:31;;;;;;;4.47;1.65;;;25.50;99.90;;;;;;4995501;28;20761;-80
2021/07/08 07:25:59;;;;;;;3.75;1.42;;;25.50;99.90;;;;;;4995677;28;20569;-80
2021/07/08 07:28:26;;;;;;;1.50;1.20;;;25.80;99.90;;;;;;4995521;28;20669;-80
2021/07/08 07:30:52;;;;;;;3.78;1.40;;;26.00;99.90;;;;;;4995436;28;20203;-80
2021/07/08 07:33:19;;;;;;;6.35;1.50;;;25.80;99.90;;;;;;4994990;28;20206;-80
2021/07/08 07:35:46;;;;;;;1.70;0.95;;;25.90;99.90;;;;;;4990765;28;20209;-80
2021/07/08 07:38:13;;;;;;;3.45;1.20;;;26.00;99.90;;;;;;4987508;28;20214;-81
2021/07/08 07:40:42;;;;;;;5.82;1.20;;;25.80;99.90;;;;;;4995149;28;20297;-78
2021/07/08 07:43:10;;;;;;;2.83;1.30;;;25.60;99.90;;;;;;4995048;28;20592;-78
2021/07/08 07:45:37;;;;;;;3.65;1.58;;;25.50;99.90;;;;;;4994768;28;20215;-80
2021/07/08 07:48:05;;;;;;;4.60;1.17;;;25.80;99.90;;;;;;4994693;28;20202;-79
2021/07/08 07:50:32;;;;;;;5.18;1.60;;;26.10;99.90;;;;;;4994820;28;20550;-80
2021/07/08 07:53:00;;;;;;;3.00;1.30;;;26.50;99.90;;;;;;4994780;28;20265;-80
2021/07/08 07:55:28;;;;;;;2.95;1.40;;;26.70;99.90;;;;;;4994591;28;20229;-78
2021/07/08 07:57:56;;;;;;;3.05;1.42;;;26.30;99.90;;;;;;4994722;28;20211;-79
2021/07/08 08:00:24;;;;;;;3.25;1.40;;;26.20;99.90;;;;;;4994186;28;20216;-81
2021/07/08 08:02:52;;;;;;;2.55;1.35;;;25.80;99.90;;;;;;4994233;28;20234;-80
2021/07/08 08:05:22;;;;;;;2.88;1.55;;;25.60;99.90;;;;;;4994048;28;20317;-79
2021/07/08 08:10:34;;;;;;;3.97;1.77;;;25.60;99.90;;;;;;4994154;28;20205;-79
2021/07/08 08:13:01;;;;;;;3.03;1.60;;;25.60;99.90;;;;;;4991143;28;20261;-80
2021/07/08 08:15:30;;;;;;;3.53;1.50;;;25.60;99.90;;;;;;4992554;28;20317;-81
2021/07/08 08:18:00;;;;;;;3.90;1.70;;;25.70;99.90;;;;;;4992956;28;20301;-84
2021/07/08 08:20:27;;;;;;;4.03;1.45;;;25.70;99.90;;;;;;4993373;28;20241;-90
2021/07/08 08:22:54;;;;;;;3.03;1.30;;;25.70;99.90;;;;;;4993649;28;20238;-81
2021/07/08 08:25:22;;;;;;;4.63;1.95;;;25.90;99.90;;;;;;4992916;28;20256;-77
2021/07/08 08:27:49;;;;;;;4.05;1.42;;;26.30;99.90;;;;;;4992639;28;20672;-88
2021/07/08 08:30:16;;;;;;;2.40;1.58;;;27.00;99.90;;;;;;4992853;28;20557;-86
2021/07/08 08:32:45;;;;;;;2.55;1.67;;;27.80;99.10;;;;;;4992592;28;20213;-82
2021/07/08 08:35:12;;;;;;;2.13;1.40;;;28.70;98.50;;;;;;4992258;28;20230;-77
2021/07/08 08:37:41;;;;;;;1.73;1.48;;;28.80;97.90;;;;;;4992538;28;20202;-76
2021/07/08 08:40:09;;;;;;;3.05;1.45;;;29.10;97.40;;;;;;4992638;28;20711;-77
2021/07/08 08:42:36;;;;;;;1.70;1.40;;;28.80;96.60;;;;;;4991710;28;20731;-82
2021/07/08 08:45:04;;;;;;;3.17;1.38;;;28.40;96.70;;;;;;4992038;28;20232;-82
2021/07/08 08:47:32;;;;;;;1.92;1.30;;;28.60;96.20;;;;;;4992699;28;20229;-84
2021/07/08 08:50:01;;;;;;;3.17;1.67;;;28.10;96.30;;;;;;4992096;28;20231;-82
2021/07/08 08:52:29;;;;;;;2.58;1.30;;;28.70;95.90;;;;;;4993065;28;20206;-80
2021/07/08 08:54:55;;;;;;;2.50;1.60;;;29.20;95.00;;;;;;4992658;28;20222;-83
2021/07/08 08:57:22;;;;;;;5.15;1.52;;;29.50;95.40;;;;;;4994261;28;20270;-79
2021/07/08 08:59:49;;;;;;;3.75;1.45;;;29.40;95.10;;;;;;4993594;28;20203;-77
2021/07/08 09:02:18;;;;;;;2.47;1.50;;;29.00;95.30;;;;;;4993611;28;20238;-78
2021/07/08 09:04:46;;;;;;;3.03;1.63;;;29.00;95.40;;;;;;4993037;28;20223;-78
2021/07/08 09:07:26;;;;;;;4.18;1.50;;;29.00;95.30;;;;;;4993242;28;20218;-80
2021/07/08 09:09:54;;;;;;;3.85;1.60;;;29.10;95.40;;;;;;4989390;28;20560;-80
2021/07/08 09:12:24;;;;;;;3.42;1.58;;;28.70;95.10;;;;;;4992733;28;20214;-77
2021/07/08 09:14:51;;;;;;;3.28;1.75;;;28.80;95.80;;;;;;4992181;28;20230;-74
2021/07/08 09:17:20;;;;;;;3.22;1.60;;;29.40;96.00;;;;;;4991355;28;20221;-74
2021/07/08 09:19:48;;;;;;;4.20;2.05;;;29.60;94.80;;;;;;4991640;28;20229;-76
2021/07/08 09:22:29;;;;;;;3.65;1.70;;;29.60;94.20;;;;;;4991849;28;20245;-75
2021/07/08 09:24:56;;;;;;;5.57;1.85;;;29.70;93.70;;;;;;4991567;28;20230;-77
2021/07/08 09:27:27;;;;;;;3.10;1.73;;;29.60;93.40;;;;;;4992365;28;20217;-76
2021/07/08 09:29:56;;;;;;;2.38;1.10;;;29.70;93.30;;;;;;4992168;28;20206;-77
2021/07/08 09:32:26;;;;;;;4.18;1.60;;;29.80;93.30;;;;;;4992156;28;20251;-77
2021/07/08 09:34:54;;;;;;;3.72;1.48;;;30.30;93.30;;;;;;4992351;28;20296;-80
2021/07/08 09:37:23;;;;;;;2.83;1.80;;;30.90;92.50;;;;;;4992353;28;20216;-80
2021/07/08 09:39:53;;;;;;;2.30;1.50;;;30.80;92.50;;;;;;4991303;28;20248;-81
2021/07/08 09:42:37;;;;;;;1.85;1.45;;;29.50;93.10;;;;;;4992356;28;20233;-76
2021/07/08 09:45:06;;;;;;;2.25;1.10;;;28.90;93.10;;;;;;4993318;28;20249;-77
2021/07/08 09:47:33;;;;;;;2.70;1.33;;;28.60;94.60;;;;;;4993520;28;20310;-77
2021/07/08 09:50:00;;;;;;;3.92;1.50;;;28.10;94.20;;;;;;4993273;28;20215;-73
2021/07/08 09:52:27;;;;;;;2.50;1.38;;;27.30;94.70;;;;;;4993570;28;20217;-74
2021/07/08 09:55:14;;;;;;;2.42;1.48;;;26.90;95.40;;;;;;4993239;28;20257;-75
2021/07/08 09:57:45;;;;;;;3.60;1.65;;;27.30;94.90;;;;;;4992994;28;20203;-74
2021/07/08 10:00:35;;;;;;;3.35;1.35;;;27.90;94.10;;;;;;4993680;28;20309;-74
2021/07/08 10:03:03;;;;;;;2.65;1.20;;;28.30;94.40;;;;;;4996577;28;20272;-75
2021/07/08 10:05:34;;;;;;;4.20;1.75;;;28.80;93.80;;;;;;4996407;28;20226;-72
2021/07/08 10:08:01;;;;;;;5.38;1.95;;;29.00;92.30;;;;;;4996835;28;20213;-74
2021/07/08 10:10:31;;;;;;;1.88;1.20;;;28.40;93.30;;;;;;4996995;28;20297;-76
2021/07/08 10:12:59;;;;;;;3.38;1.10;;;28.00;93.70;;;;;;4997798;28;20206;-74
2021/07/08 10:15:29;;;;;;;1.50;1.20;;;28.20;93.90;;;;;;4996345;28;20701;-75
2021/07/08 10:17:59;;;;;;;2.15;1.30;;;28.00;93.60;;;;;;4996756;28;20669;-75
2021/07/08 10:20:26;;;;;;;1.40;1.30;;;27.70;92.00;;;;;;4996802;28;20206;-75
2021/07/08 10:22:54;;;;;;;3.35;1.00;;;27.50;92.70;;;;;;4996655;28;20234;-74
2021/07/08 10:25:20;;;;;;;3.30;1.20;;;27.10;94.40;;;;;;4996866;28;20230;-74
2021/07/08 10:27:49;;;;;;;2.65;0.95;;;27.10;94.30;;;;;;4996214;28;20680;-73
2021/07/08 10:30:21;;;;;;;3.63;1.75;;;27.00;95.40;;;;;;4996338;28;20207;-74
2021/07/08 10:32:55;;;;;;;2.70;1.48;;;27.00;94.20;;;;;;4995933;28;20214;-75
2021/07/08 10:35:37;;;;;;;4.75;1.20;;;27.10;93.30;;;;;;4995936;28;20236;-76
2021/07/08 10:38:32;;;;;;;2.90;1.33;;;26.90;94.50;;;;;;4996042;28;20305;-75
2021/07/08 10:41:00;;;;;;;3.10;1.20;;;26.80;93.40;;;;;;4996272;28;20238;-74
2021/07/08 10:43:35;;;;;;;1.73;1.30;;;26.60;93.80;;;;;;4996349;28;20597;-75
2021/07/08 10:46:04;;;;;;;1.80;1.10;;;26.30;94.40;;;;;;4996202;28;20209;-76
2021/07/08 10:48:41;;;;;;;2.08;1.30;;;26.20;94.40;;;;;;4996432;28;20211;-75
2021/07/08 10:51:09;;;;;;;1.88;1.13;;;25.80;94.90;;;;;;4996194;28;20216;-76
2021/07/08 10:53:38;;;;;;;4.00;1.17;;;25.80;96.20;;;;;;4995842;28;20731;-80
2021/07/08 10:56:07;;;;;;;2.50;1.20;;;26.20;95.80;;;;;;4996478;28;20210;-82
2021/07/08 10:58:44;;;;;;;1.73;1.20;;;26.40;95.30;;;;;;4996296;28;20214;-78
2021/07/08 11:01:12;;;;;;;2.40;1.20;;;26.60;95.70;;;;;;4995989;28;20211;-79
2021/07/08 11:03:45;;;;;;;5.65;1.50;;;26.70;95.30;;;;;;4995647;28;20244;-74
2021/07/08 11:06:22;;;;;;;2.92;1.40;;;26.60;94.40;;;;;;4995752;28;20213;-76
2021/07/08 11:08:52;;;;;;;5.53;1.30;;;26.60;95.10;;;;;;4995598;28;20206;-74
2021/07/08 11:11:56;;;;;;;3.33;1.40;;;26.20;94.20;;;;;;4995736;28;20226;-77
2021/07/08 11:14:27;;;;;;;2.75;1.23;;;25.60;95.00;;;;;;4995769;28;20364;-83
2021/07/08 11:16:58;;;;;;;2.15;1.02;;;25.30;94.60;;;;;;4995730;28;20256;-81
2021/07/08 11:19:39;;;;;;;1.63;1.00;;;25.40;93.50;;;;;;4995350;28;20210;-80
2021/07/08 11:22:10;;;;;;;2.28;1.10;;;25.20;94.70;;;;;;4995561;28;20207;-81
2021/07/08 11:24:46;;;;;;;1.60;1.20;;;25.30;94.80;;;;;;4995261;28;20229;-77
2021/07/08 11:27:16;;;;;;;5.22;1.50;;;25.80;95.60;;;;;;4995460;28;20229;-81
2021/07/08 11:29:46;;;;;;;1.38;1.13;;;25.70;94.50;;;;;;4995587;28;20214;-81
2021/07/08 11:32:25;;;;;;;2.53;1.30;;;25.50;95.70;;;;;;4995656;28;20202;-81
2021/07/08 11:34:57;;;;;;;3.90;1.60;;;25.70;95.10;;;;;;4996145;28;20320;-81
2021/07/08 11:37:26;;;;;;;3.63;1.20;;;25.80;95.70;;;;;;4996256;28;20272;-80
2021/07/08 11:39:57;;;;;;;2.45;1.42;;;25.90;95.10;;;;;;4993618;28;20241;-81
2021/07/08 11:42:26;;;;;;;1.83;1.27;;;25.90;95.80;;;;;;4996619;28;20601;-81
2021/07/08 11:44:54;;;;;;;4.20;1.25;;;26.20;96.10;;;;;;4994385;28;20234;-77
2021/07/08 11:47:22;;;;;;;1.77;1.00;;;26.30;96.40;;;;;;4993695;28;20400;-78
2021/07/08 11:49:50;;;;;;;2.35;1.30;;;26.50;94.50;;;;;;4994057;28;20545;-82
2021/07/08 11:52:20;;;;;;;6.20;1.20;;;26.50;94.40;;;;;;4993490;28;20209;-77
2021/07/08 11:54:58;;;;;;;2.17;1.10;;;26.30;94.60;;;;;;4992996;28;20232;-81
2021/07/08 11:57:25;;;;;;;4.13;1.55;;;26.20;95.10;;;;;;4993792;28;20203;-81
2021/07/08 11:59:52;;;;;;;1.88;1.10;;;26.00;95.00;;;;;;4993392;28;20218;-81
2021/07/08 12:02:35;;;;;;;3.03;1.35;;;25.80;95.40;;;;;;4973778;28;20234;-75
2021/07/08 12:05:16;;;;;;;2.20;1.35;;;25.50;95.50;;;;;;4975337;28;20227;-85
2021/07/08 12:07:44;;;;;;;2.45;1.27;;;25.40;96.10;;;;;;4991203;28;20214;-80
2021/07/08 12:10:12;;;;;;;1.95;1.40;;;25.20;96.70;;;;;;4993320;28;20198;-78
2021/07/08 12:12:40;;;;;;;3.97;1.33;;;25.40;95.50;;;;;;4994036;28;20297;-78
2021/07/08 12:15:08;;;;;;;1.80;1.20;;;25.40;95.40;;;;;;4995084;28;20288;-78
2021/07/08 12:17:36;;;;;;;2.05;1.40;;;25.50;95.30;;;;;;4994343;28;20237;-79
2021/07/08 12:20:08;;;;;;;3.05;1.30;;;25.70;94.80;;;;;;4994286;28;20203;-79
2021/07/08 12:22:36;;;;;;;3.03;1.20;;;25.90;95.10;;;;;;4996513;28;20572;-77
2021/07/08 12:25:14;;;;;;;1.58;1.20;;;26.10;95.10;;;;;;4997140;28;20233;-79
2021/07/08 12:27:41;;;;;;;10.93;2.00;;;26.30;94.60;;;;;;4997175;28;20297;-78
2021/07/08 12:30:17;;;;;;;3.65;1.33;;;26.50;94.20;;;;;;4999007;28;20293;-80
2021/07/08 12:32:45;;;;;;;1.35;1.20;;;26.60;93.70;;;;;;4993930;28;20206;-79
2021/07/08 12:35:12;;;;;;;2.67;1.27;;;26.80;94.70;;;;;;4994055;28;20230;-81
2021/07/08 12:37:41;;;;;;;5.28;1.40;;;26.70;93.90;;;;;;4994065;28;20210;-83
2021/07/08 12:40:10;;;;;;;1.67;1.27;;;26.30;94.40;;;;;;4993940;28;20211;-82
2021/07/08 12:42:39;;;;;;;5.13;1.40;;;26.30;94.80;;;;;;4994250;28;20214;-79
2021/07/08 12:45:08;;;;;;;4.13;1.42;;;26.30;94.80;;;;;;4993785;28;20230;-78
2021/07/08 12:47:36;;;;;;;3.78;1.23;;;26.40;93.90;;;;;;4993742;28;20213;-78
2021/07/08 12:50:05;;;;;;;2.55;1.55;;;26.50;94.40;;;;;;4993401;28;20221;-77
2021/07/08 12:52:33;;;;;;;1.25;1.00;;;26.20;94.00;;;;;;4993685;28;20675;-81
2021/07/08 12:55:00;;;;;;;2.97;1.17;;;26.50;94.90;;;;;;4994030;28;20226;-79
2021/07/08 12:57:27;;;;;;;1.40;1.30;;;26.40;93.50;;;;;;4993403;28;20668;-77
2021/07/08 12:59:55;;;;;;;2.13;1.35;;;26.50;92.90;;;;;;4993529;28;20206;-79
2021/07/08 13:02:22;;;;;;;1.77;1.20;;;26.70;92.60;;;;;;4993639;28;20206;-78
2021/07/08 13:05:00;;;;;;;2.13;1.27;;;26.40;93.10;;;;;;4993136;28;20245;-82
2021/07/08 13:07:28;;;;;;;4.30;1.27;;;26.30;95.40;;;;;;4993589;28;20206;-81
2021/07/08 13:09:56;;;;;;;3.10;1.10;;;26.30;94.50;;;;;;4993657;28;20768;-78
2021/07/08 13:12:24;;;;;;;4.05;1.58;;;26.30;94.50;;;;;;4993707;28;20206;-81
2021/07/08 13:14:51;;;;;;;3.15;1.30;;;26.50;95.70;;;;;;4994484;28;20248;-80
2021/07/08 13:17:18;;;;;;;3.85;1.10;;;26.50;95.30;;;;;;4994062;28;20221;-78
2021/07/08 13:19:48;;;;;;;3.30;1.15;;;26.30;95.60;;;;;;4993749;28;20213;-79
2021/07/08 13:22:17;;;;;;;5.07;1.17;;;26.40;94.50;;;;;;4994266;28;20217;-81
2021/07/08 13:24:45;;;;;;;1.80;1.30;;;26.60;96.00;;;;;;4993697;28;20238;-77
2021/07/08 13:27:13;;;;;;;3.63;1.65;;;26.50;96.10;;;;;;4993582;28;20210;-82
2021/07/08 13:29:40;;;;;;;4.78;1.50;;;26.50;96.70;;;;;;4993509;28;20203;-82
2021/07/08 13:32:21;;;;;;;5.07;1.77;;;26.50;97.30;;;;;;4993927;28;20206;-78
2021/07/08 13:34:51;;;;;;;3.53;1.58;;;26.40;96.70;;;;;;4993843;28;20226;-81
2021/07/08 13:37:26;;;;;;;4.78;1.60;;;26.20;97.10;;;;;;4997162;28;20297;-80
2021/07/08 13:39:54;;;;;;;3.13;1.77;;;26.20;97.80;;;;;;4997478;28;20210;-78
2021/07/08 13:42:28;;;;;;;4.97;1.60;;;26.10;98.10;;;;;;4996979;28;20215;-80
2021/07/08 13:44:55;;;;;;;2.35;1.10;;;26.00;97.20;;;;;;4996825;28;20241;-81
2021/07/08 13:47:26;;;;;;;4.22;2.10;;;26.10;97.60;;;;;;4997388;28;20230;-79
2021/07/08 13:49:55;;;;;;;2.33;1.42;;;26.10;98.00;;;;;;4997666;28;20621;-78
2021/07/08 13:52:24;;;;;;;3.63;1.60;;;26.20;96.00;;;;;;4997183;28;20264;-78
2021/07/08 13:54:51;;;;;;;4.57;2.10;;;26.10;96.10;;;;;;4997109;28;20277;-79
2021/07/08 13:57:22;;;;;;;1.88;1.35;;;26.10;96.90;;;;;;4998438;28;20213;-78
2021/07/08 13:59:58;;;;;;;3.55;1.60;;;26.20;97.80;;;;;;4997604;28;20203;-79
2021/07/08 14:02:24;;;;;;;4.20;1.50;;;26.30;96.30;;;;;;4997524;28;20206;-81
2021/07/08 14:04:51;;;;;;;2.28;1.48;;;26.30;96.30;;;;;;4996688;28;20238;-81
2021/07/08 14:07:19;;;;;;;1.83;1.20;;;26.30;95.60;;;;;;4997923;28;20206;-83
2021/07/08 14:09:45;;;;;;;1.65;1.30;;;26.40;96.90;;;;;;4998059;28;20212;-83
2021/07/08 14:12:12;;;;;;;3.70;1.30;;;26.50;96.00;;;;;;4996931;28;20569;-83
2021/07/08 14:14:40;;;;;;;3.15;1.42;;;26.50;94.70;;;;;;4996580;28;20223;-84
2021/07/08 14:17:07;;;;;;;3.58;1.55;;;26.50;95.10;;;;;;4996632;28;20221;-80
2021/07/08 14:19:34;;;;;;;3.95;1.38;;;26.30;96.00;;;;;;4996403;28;20569;-83
2021/07/08 14:22:01;;;;;;;5.15;1.80;;;26.30;96.40;;;;;;4996858;28;20215;-85
2021/07/08 14:24:27;;;;;;;4.22;1.58;;;26.20;97.50;;;;;;4996730;28;20521;-84
2021/07/08 14:26:54;;;;;;;2.92;1.48;;;26.00;97.40;;;;;;4996734;28;20298;-84
2021/07/08 14:29:21;;;;;;;3.85;1.48;;;25.90;96.00;;;;;;4996190;28;20685;-83
2021/07/08 14:31:49;;;;;;;1.90;1.60;;;25.80;95.90;;;;;;4996328;28;20210;-84
2021/07/08 14:34:16;;;;;;;2.72;2.05;;;25.80;96.20;;;;;;4995865;28;20566;-82
2021/07/08 14:36:43;;;;;;;2.65;1.20;;;25.80;95.70;;;;;;4997141;28;20211;-82
2021/07/08 14:39:11;;;;;;;3.72;1.77;;;25.40;99.40;;;;;;5001862;28;20207;-84
2021/07/08 14:41:43;;;;;;;2.75;1.55;;;25.30;97.90;;;;;;4997149;28;20210;-84
2021/07/08 14:44:18;;;;;;;2.75;1.10;;;25.20;98.10;;;;;;4996248;28;20238;-84
2021/07/08 14:46:45;;;;;;;4.10;1.52;;;25.20;98.40;;;;;;4994931;28;20210;-83
2021/07/08 14:49:13;;;;;;;3.38;1.73;;;25.20;96.60;;;;;;4996071;28;20206;-83
2021/07/08 14:51:40;;;;;;;3.00;1.30;;;25.10;97.20;;;;;;4996140;28;20658;-83
2021/07/08 14:54:07;;;;;;;1.90;1.23;;;25.00;98.50;;;;;;4996073;28;20226;-82
2021/07/08 14:56:34;;;;;;;2.22;1.17;;;24.90;99.30;;;;;;4996132;28;20207;-79
2021/07/08 14:59:00;;;;;;;2.10;1.48;;;24.90;98.00;;;;;;4995851;28;20210;-84
2021/07/08 15:01:27;;;;;;;4.28;1.58;;;25.00;99.20;;;;;;4995826;28;20202;-82
2021/07/08 15:03:54;;;;;;;1.80;1.30;;;24.90;98.00;;;;;;4995623;28;20235;-83
2021/07/08 15:06:23;;;;;;;1.63;1.20;;;24.90;98.00;;;;;;4995924;28;20206;-83
2021/07/08 15:08:50;;;;;;;2.42;1.20;;;25.00;98.10;;;;;;4996147;28;20212;-84
2021/07/08 15:11:17;;;;;;;1.95;1.17;;;24.80;98.40;;;;;;4995621;28;20313;-84
2021/07/08 15:13:44;;;;;;;2.78;1.30;;;24.80;98.70;;;;;;4995783;28;20230;-84
2021/07/08 15:16:11;;;;;;;1.75;1.30;;;24.90;99.30;;;;;;4995724;28;20202;-84
2021/07/08 15:18:38;;;;;;;6.07;1.63;;;24.90;99.30;;;;;;4995721;28;20206;-83
2021/07/08 15:21:05;;;;;;;2.35;1.30;;;24.90;99.90;;;;;;4995506;28;20662;-82
2021/07/08 15:23:33;;;;;;;2.63;1.40;;;25.00;97.90;;;;;;4995171;28;20253;-82
2021/07/08 15:26:00;;;;;;;1.88;1.10;;;25.10;98.20;;;;;;4995238;28;20318;-83
2021/07/08 15:28:27;;;;;;;1.75;1.20;;;25.00;98.00;;;;;;4995152;28;20308;-83
2021/07/08 15:30:54;;;;;;;3.97;1.70;;;24.90;99.30;;;;;;4995568;28;20219;-80
2021/07/08 15:33:23;;;;;;;6.30;2.55;;;24.70;99.90;;;;;;4995051;28;20569;-81
2021/07/08 15:35:51;;;;;;;3.28;2.45;;;24.50;99.90;;;;;;4994964;28;20213;-79
2021/07/08 15:38:18;;;;;;;5.68;3.05;;;24.30;99.90;;;;;;4995275;28;20644;-82
2021/07/08 15:40:46;;;;;;;5.93;3.60;;;23.90;99.90;;;;;;4995240;28;20217;-82
2021/07/08 15:43:14;;;;;;;7.07;3.85;;;23.50;99.90;;;;;;4996156;28;20210;-83
2021/07/08 15:45:41;;;;;;;10.68;5.72;;;23.20;99.90;;;;;;4995642;28;20688;-84
2021/07/08 15:48:08;;;;;;;5.85;3.13;;;22.30;99.90;;;;;;4996483;28;20207;-84
2021/07/08 15:50:35;;;;;;;4.33;2.37;;;21.00;99.90;;;;;;4995132;28;20207;-82
2021/07/08 15:53:02;;;;;;;6.27;4.50;;;19.60;99.90;;;;;;4996295;28;20229;-81
2021/07/08 15:55:29;;;;;;;9.30;4.87;;;18.80;99.90;;;;;;4994898;28;20246;-81
2021/07/08 15:57:57;;;;;;;9.30;5.20;;;18.30;99.90;;;;;;4994640;28;20238;-80
2021/07/08 16:00:24;;;;;;;8.50;5.60;;;18.10;99.90;;;;;;4994578;28;20657;-77
2021/07/08 16:02:51;;;;;;;9.37;6.13;;;18.00;99.90;;;;;;4994580;28;20203;-80
2021/07/08 16:05:18;;;;;;;14.17;6.90;;;18.20;99.90;;;;;;4994296;28;20246;-80
2021/07/08 16:07:44;;;;;;;11.83;6.87;;;18.40;99.90;;;;;;4994757;28;20210;-79
2021/07/08 16:10:12;;;;;;;14.00;7.40;;;18.50;99.90;;;;;;4994393;28;20207;-80
2021/07/08 16:12:39;;;;;;;14.53;7.90;;;18.60;99.90;;;;;;4994675;28;20575;-79
2021/07/08 16:15:09;;;;;;;14.53;8.10;;;18.70;99.90;;;;;;4994682;28;20230;-79
2021/07/08 16:17:40;;;;;;;11.03;7.43;;;18.70;99.90;;;;;;4994343;28;20674;-79
2021/07/08 16:20:09;;;;;;;14.23;8.63;;;18.80;99.90;;;;;;4994555;28;20211;-81
2021/07/08 16:22:36;;;;;;;13.87;8.17;;;19.00;99.90;;;;;;4994069;28;20210;-80
2021/07/08 16:25:03;;;;;;;12.80;8.40;;;19.30;99.90;;;;;;4994274;28;20245;-79
2021/07/08 16:27:30;;;;;;;14.90;8.30;;;19.60;99.90;;;;;;4994257;28;20210;-80
2021/07/08 16:29:56;;;;;;;11.20;8.07;;;19.90;99.90;;;;;;4994298;28;20210;-81
2021/07/08 16:32:25;;;;;;;13.52;7.70;;;20.10;99.90;;;;;;4994038;28;20213;-81
2021/07/08 16:34:51;;;;;;;13.18;7.90;;;20.50;99.90;;;;;;4993739;28;20601;-81
2021/07/08 16:37:18;;;;;;;12.68;8.50;;;20.50;99.90;;;;;;4993883;28;20593;-80
2021/07/08 16:39:45;;;;;;;10.93;7.68;;;20.60;99.90;;;;;;4994254;28;20206;-80
2021/07/08 16:42:12;;;;;;;14.80;8.45;;;20.70;99.90;;;;;;4994250;28;20257;-81
2021/07/08 16:44:39;;;;;;;16.25;8.02;;;20.70;99.90;;;;;;4993909;28;20593;-83
2021/07/08 16:47:06;;;;;;;13.07;8.13;;;20.80;99.90;;;;;;4993955;28;20203;-82
2021/07/08 16:49:34;;;;;;;11.60;7.63;;;20.90;99.90;;;;;;4994013;28;20210;-81
2021/07/08 16:52:00;;;;;;;10.93;7.28;;;21.10;99.90;;;;;;4993806;28;20213;-83
2021/07/08 16:54:27;;;;;;;15.43;7.43;;;21.10;99.90;;;;;;4993831;28;20233;-83
2021/07/08 16:56:54;;;;;;;12.32;7.07;;;20.90;99.90;;;;;;4994077;28;20321;-82
2021/07/08 16:59:21;;;;;;;11.95;6.90;;;20.60;99.90;;;;;;4993624;28;20669;-84
2021/07/08 17:01:48;;;;;;;12.05;7.47;;;20.60;99.90;;;;;;4993791;28;20213;-83
2021/07/08 17:04:15;;;;;;;11.00;7.32;;;20.70;99.90;;;;;;4993375;28;20234;-82
2021/07/08 17:06:43;;;;;;;13.32;7.78;;;20.80;99.90;;;;;;4994794;28;20202;-86
2021/07/08 17:09:10;;;;;;;9.32;7.25;;;20.90;99.90;;;;;;4993702;28;20565;-89
2021/07/08 17:11:37;;;;;;;15.80;7.93;;;20.90;99.90;;;;;;4993372;28;20202;-84
2021/07/08 17:14:03;;;;;;;12.35;7.80;;;20.80;99.90;;;;;;4994032;28;20222;-87
2021/07/08 17:16:30;;;;;;;10.32;7.18;;;21.00;99.90;;;;;;4994693;28;20218;-86
2021/07/08 17:18:57;;;;;;;10.05;6.88;;;21.00;99.90;;;;;;4994641;28;20206;-86
2021/07/08 17:21:25;;;;;;;10.48;6.97;;;21.10;99.90;;;;;;4994031;28;20211;-86
2021/07/08 17:23:55;;;;;;;12.98;7.47;;;21.20;99.90;;;;;;4993616;28;20230;-87
2021/07/08 17:26:22;;;;;;;10.93;6.82;;;21.30;99.90;;;;;;4993743;28;20230;-85
2021/07/08 17:28:49;;;;;;;10.57;6.72;;;21.30;99.90;;;;;;4993634;28;20207;-86
2021/07/08 17:31:16;;;;;;;9.32;5.95;;;21.30;99.90;;;;;;4993563;28;20214;-82
2021/07/08 17:33:43;;;;;;;8.63;6.40;;;21.30;99.90;;;;;;4993486;28;20232;-86
2021/07/08 17:36:10;;;;;;;8.82;5.93;;;21.30;99.90;;;;;;4993622;28;20214;-83
2021/07/08 17:38:37;;;;;;;7.35;5.68;;;21.30;99.90;;;;;;4993781;28;20202;-84
2021/07/08 17:41:05;;;;;;;7.45;5.70;;;21.40;99.90;;;;;;4993344;28;20565;-82
2021/07/08 17:43:32;;;;;;;8.25;5.45;;;21.40;99.90;;;;;;4993357;28;20234;-80
2021/07/08 17:45:59;;;;;;;6.78;5.82;;;21.40;99.90;;;;;;4993239;28;20241;-83
2021/07/08 17:48:26;;;;;;;6.13;5.15;;;21.40;99.90;;;;;;4993415;28;20208;-84
2021/07/08 17:50:53;;;;;;;8.07;5.00;;;21.50;99.90;;;;;;4993429;28;20202;-82
2021/07/08 17:53:20;;;;;;;8.23;5.10;;;21.50;99.90;;;;;;4993370;28;20256;-83
2021/07/08 17:55:47;;;;;;;7.05;4.93;;;21.60;99.90;;;;;;4993424;28;20229;-82
2021/07/08 17:58:15;;;;;;;5.68;4.60;;;21.70;99.90;;;;;;4993115;28;20212;-83
2021/07/08 18:00:42;;;;;;;7.05;4.70;;;21.80;99.90;;;;;;4992860;28;20677;-83
2021/07/08 18:03:08;;;;;;;6.80;5.15;;;22.00;99.90;;;;;;4992860;28;20213;-80
2021/07/08 18:05:35;;;;;;;6.88;4.68;;;21.90;99.90;;;;;;4992642;28;20237;-80
2021/07/08 18:08:02;;;;;;;5.60;4.47;;;21.90;99.90;;;;;;4992354;28;20649;-79
2021/07/08 18:10:29;;;;;;;7.28;4.95;;;21.90;99.90;;;;;;4988771;28;20223;-81
2021/07/08 18:12:56;;;;;;;6.68;4.72;;;21.90;99.90;;;;;;4991929;28;20202;-81
2021/07/08 18:15:24;;;;;;;4.82;3.92;;;21.90;99.90;;;;;;4991919;28;20228;-82
2021/07/08 18:17:51;;;;;;;4.57;3.85;;;21.80;99.90;;;;;;4987531;28;20211;-81
2021/07/08 18:20:20;;;;;;;6.68;3.85;;;21.50;99.90;;;;;;4979414;28;20207;-81
2021/07/08 18:22:47;;;;;;;4.25;3.55;;;21.50;99.90;;;;;;4985423;28;20202;-82
2021/07/08 18:25:17;;;;;;;5.80;3.85;;;21.30;99.90;;;;;;4982118;28;20235;-82
2021/07/08 18:27:44;;;;;;;5.07;3.80;;;21.20;99.90;;;;;;4983558;28;20206;-82
2021/07/08 18:30:15;;;;;;;5.15;3.55;;;21.10;99.90;;;;;;4988855;28;20217;-83
2021/07/08 18:32:44;;;;;;;4.57;3.55;;;21.00;99.90;;;;;;4987753;28;20249;-81
2021/07/08 18:35:12;;;;;;;4.28;3.67;;;20.80;99.90;;;;;;4990056;28;20234;-82
2021/07/08 18:37:39;;;;;;;4.10;3.47;;;20.70;99.90;;;;;;4995587;28;20203;-82
2021/07/08 18:40:09;;;;;;;5.32;3.78;;;20.50;99.90;;;;;;4983238;28;20578;-82
2021/07/08 18:42:36;;;;;;;4.43;3.70;;;20.30;99.90;;;;;;4987170;28;20242;-84
2021/07/08 18:45:04;;;;;;;5.22;3.90;;;20.20;99.90;;;;;;4994014;28;20241;-81
2021/07/08 18:47:30;;;;;;;4.10;3.28;;;20.10;99.90;;;;;;4989900;28;20207;-80
2021/07/08 18:49:58;;;;;;;4.63;3.72;;;19.90;99.90;;;;;;4988692;28;20207;-79
2021/07/08 18:52:25;;;;;;;5.35;4.53;;;19.80;99.90;;;;;;4992982;28;20237;-81
2021/07/08 18:54:52;;;;;;;6.23;4.30;;;19.80;99.90;;;;;;4983606;28;20234;-82
2021/07/08 18:57:19;;;;;;;5.22;4.25;;;19.70;99.90;;;;;;4988710;28;20218;-79
2021/07/08 18:59:46;;;;;;;4.67;3.90;;;19.70;99.90;;;;;;4984210;28;20214;-79
2021/07/08 19:02:13;;;;;;;4.60;3.90;;;19.60;99.90;;;;;;4992705;28;20210;-79
2021/07/08 19:04:40;;;;;;;7.00;4.53;;;19.60;99.90;;;;;;4981483;28;20238;-80
2021/07/08 19:07:08;;;;;;;6.57;3.93;;;19.60;99.90;;;;;;4989726;28;20217;-79
2021/07/08 19:09:35;;;;;;;5.82;4.07;;;19.70;99.90;;;;;;4988198;28;20214;-81
2021/07/08 19:12:02;;;;;;;5.93;4.40;;;19.70;99.90;;;;;;4990837;28;20202;-81